sensor_id;sensor_type;location;lat;lon;timestamp;temperature;humidity
81726;DHT22;71135;16.738;-14.648;2023-12-20T00:00:46;9.80;67.20
81726;DHT22;71135;16.738;-14.648;2023-12-20T00:03:15;9.80;67.20
81726;DHT22;71135;16.738;-14.648;2023-12-20T00:05:45;9.80;67.20
81726;DHT22;71135;16.738;-14.648;2023-12-20T00:08:14;9.80;67.20
81726;DHT22;71135;16.738;-14.648;2023-12-20T00:10:44;9.80;67.10
81726;DHT22;71135;16.738;-14.648;2023-12-20T00:13:13;9.70;67.20
81726;DHT22;71135;16.738;-14.648;2023-12-20T00:15:42;9.70;67.10
81726;DHT22;71135;16.738;-14.648;2023-12-20T00:18:14;9.70;67.20
81726;DHT22;71135;16.738;-14.648;2023-12-20T00:20:43;9.70;67.10
81726;DHT22;71135;16.738;-14.648;2023-12-20T00:23:12;9.70;67.10
81726;DHT22;71135;16.738;-14.648;2023-12-20T00:25:41;9.70;67.10
81726;DHT22;71135;16.738;-14.648;2023-12-20T00:31:22;9.70;67.00
81726;DHT22;71135;16.738;-14.648;2023-12-20T00:33:53;9.60;67.10
81726;DHT22;71135;16.738;-14.648;2023-12-20T00:36:26;9.60;67.20
81726;DHT22;71135;16.738;-14.648;2023-12-20T00:38:55;9.60;67.20
81726;DHT22;71135;16.738;-14.648;2023-12-20T00:41:24;9.60;67.20
81726;DHT22;71135;16.738;-14.648;2023-12-20T00:43:53;9.60;67.20
81726;DHT22;71135;16.738;-14.648;2023-12-20T00:46:22;9.60;67.20
81726;DHT22;71135;16.738;-14.648;2023-12-20T00:48:54;9.60;67.30
81726;DHT22;71135;16.738;-14.648;2023-12-20T00:51:23;9.60;67.20
81726;DHT22;71135;16.738;-14.648;2023-12-20T00:53:52;9.60;67.20
81726;DHT22;71135;16.738;-14.648;2023-12-20T00:56:21;9.60;67.20
81726;DHT22;71135;16.738;-14.648;2023-12-20T00:58:50;9.60;67.20
81726;DHT22;71135;16.738;-14.648;2023-12-20T01:01:19;9.60;67.20
81726;DHT22;71135;16.738;-14.648;2023-12-20T01:03:49;9.60;67.20
81726;DHT22;71135;16.738;-14.648;2023-12-20T01:06:21;9.60;67.20
81726;DHT22;71135;16.738;-14.648;2023-12-20T01:08:50;9.60;67.10
81726;DHT22;71135;16.738;-14.648;2023-12-20T01:11:19;9.50;67.20
81726;DHT22;71135;16.738;-14.648;2023-12-20T01:13:48;9.50;67.20
81726;DHT22;71135;16.738;-14.648;2023-12-20T01:16:17;9.50;67.30
81726;DHT22;71135;16.738;-14.648;2023-12-20T01:18:47;9.50;67.30
81726;DHT22;71135;16.738;-14.648;2023-12-20T01:21:16;9.50;67.30
81726;DHT22;71135;16.738;-14.648;2023-12-20T01:23:47;9.50;67.30
81726;DHT22;71135;16.738;-14.648;2023-12-20T01:26:17;9.50;67.40
81726;DHT22;71135;16.738;-14.648;2023-12-20T01:28:46;9.50;67.30
81726;DHT22;71135;16.738;-14.648;2023-12-20T01:31:15;9.50;67.30
81726;DHT22;71135;16.738;-14.648;2023-12-20T01:33:44;9.50;67.40
81726;DHT22;71135;16.738;-14.648;2023-12-20T01:36:13;9.50;67.30
81726;DHT22;71135;16.738;-14.648;2023-12-20T01:38:42;9.50;67.30
81726;DHT22;71135;16.738;-14.648;2023-12-20T01:41:14;9.60;67.30
81726;DHT22;71135;16.738;-14.648;2023-12-20T01:43:43;9.60;67.30
81726;DHT22;71135;16.738;-14.648;2023-12-20T01:46:12;9.60;67.20
81726;DHT22;71135;16.738;-14.648;2023-12-20T01:48:41;9.60;67.30
81726;DHT22;71135;16.738;-14.648;2023-12-20T01:51:11;9.60;67.30
81726;DHT22;71135;16.738;-14.648;2023-12-20T01:53:41;9.60;67.30
81726;DHT22;71135;16.738;-14.648;2023-12-20T01:56:13;9.60;67.30
81726;DHT22;71135;16.738;-14.648;2023-12-20T01:58:44;9.60;67.30
81726;DHT22;71135;16.738;-14.648;2023-12-20T02:01:14;9.60;67.40
81726;DHT22;71135;16.738;-14.648;2023-12-20T02:03:45;9.70;67.30
81726;DHT22;71135;16.738;-14.648;2023-12-20T02:06:15;9.60;67.40
81726;DHT22;71135;16.738;-14.648;2023-12-20T02:08:45;9.60;67.40
81726;DHT22;71135;16.738;-14.648;2023-12-20T02:11:21;9.70;67.40
81726;DHT22;71135;16.738;-14.648;2023-12-20T02:13:51;9.70;67.40
81726;DHT22;71135;16.738;-14.648;2023-12-20T02:16:21;9.70;67.40
81726;DHT22;71135;16.738;-14.648;2023-12-20T02:19:09;9.70;67.40
81726;DHT22;71135;16.738;-14.648;2023-12-20T02:21:44;9.70;67.40
81726;DHT22;71135;16.738;-14.648;2023-12-20T02:24:13;9.70;67.40
81726;DHT22;71135;16.738;-14.648;2023-12-20T02:26:43;9.70;67.40
81726;DHT22;71135;16.738;-14.648;2023-12-20T02:29:12;9.70;67.40
81726;DHT22;71135;16.738;-14.648;2023-12-20T02:31:41;9.80;67.30
81726;DHT22;71135;16.738;-14.648;2023-12-20T02:34:10;9.80;67.30
81726;DHT22;71135;16.738;-14.648;2023-12-20T02:36:40;9.80;67.30
81726;DHT22;71135;16.738;-14.648;2023-12-20T02:39:11;9.80;67.30
81726;DHT22;71135;16.738;-14.648;2023-12-20T02:41:40;9.80;67.30
81726;DHT22;71135;16.738;-14.648;2023-12-20T02:44:09;9.80;67.30
81726;DHT22;71135;16.738;-14.648;2023-12-20T02:46:39;9.90;67.30
81726;DHT22;71135;16.738;-14.648;2023-12-20T02:49:08;9.90;67.30
81726;DHT22;71135;16.738;-14.648;2023-12-20T02:51:37;9.90;67.30
81726;DHT22;71135;16.738;-14.648;2023-12-20T02:54:07;10.00;67.20
81726;DHT22;71135;16.738;-14.648;2023-12-20T02:56:38;10.00;67.20
81726;DHT22;71135;16.738;-14.648;2023-12-20T02:59:07;10.00;67.20
81726;DHT22;71135;16.738;-14.648;2023-12-20T03:01:41;9.90;67.20
81726;DHT22;71135;16.738;-14.648;2023-12-20T03:04:10;10.00;67.20
81726;DHT22;71135;16.738;-14.648;2023-12-20T03:06:39;10.00;67.10
81726;DHT22;71135;16.738;-14.648;2023-12-20T03:09:08;10.00;67.10
81726;DHT22;71135;16.738;-14.648;2023-12-20T03:11:40;10.00;67.10
81726;DHT22;71135;16.738;-14.648;2023-12-20T03:14:09;10.00;67.00
81726;DHT22;71135;16.738;-14.648;2023-12-20T03:16:38;10.00;66.90
81726;DHT22;71135;16.738;-14.648;2023-12-20T03:19:07;10.00;66.90
81726;DHT22;71135;16.738;-14.648;2023-12-20T03:21:36;10.00;66.80
81726;DHT22;71135;16.738;-14.648;2023-12-20T03:27:44;10.00;66.70
81726;DHT22;71135;16.738;-14.648;2023-12-20T03:33:50;9.90;66.60
81726;DHT22;71135;16.738;-14.648;2023-12-20T03:36:20;9.80;66.60
81726;DHT22;71135;16.738;-14.648;2023-12-20T03:38:49;9.90;66.60
81726;DHT22;71135;16.738;-14.648;2023-12-20T03:44:41;9.90;66.50
81726;DHT22;71135;16.738;-14.648;2023-12-20T03:47:10;9.80;66.60
81726;DHT22;71135;16.738;-14.648;2023-12-20T03:49:39;9.80;66.70
81726;DHT22;71135;16.738;-14.648;2023-12-20T03:52:08;9.80;66.70
81726;DHT22;71135;16.738;-14.648;2023-12-20T03:54:38;9.80;66.70
81726;DHT22;71135;16.738;-14.648;2023-12-20T03:57:08;9.80;66.70
81726;DHT22;71135;16.738;-14.648;2023-12-20T03:59:40;9.80;66.70
81726;DHT22;71135;16.738;-14.648;2023-12-20T04:02:09;9.90;66.60
81726;DHT22;71135;16.738;-14.648;2023-12-20T04:04:38;9.90;66.60
81726;DHT22;71135;16.738;-14.648;2023-12-20T04:07:05;9.90;66.50
81726;DHT22;71135;16.738;-14.648;2023-12-20T04:09:34;10.00;66.40
81726;DHT22;71135;16.738;-14.648;2023-12-20T04:12:04;10.00;66.40
81726;DHT22;71135;16.738;-14.648;2023-12-20T04:14:33;9.90;66.40
81726;DHT22;71135;16.738;-14.648;2023-12-20T04:17:05;9.90;66.40
81726;DHT22;71135;16.738;-14.648;2023-12-20T04:19:34;9.90;66.40
81726;DHT22;71135;16.738;-14.648;2023-12-20T04:22:03;9.90;66.40
81726;DHT22;71135;16.738;-14.648;2023-12-20T04:24:32;9.90;66.50
81726;DHT22;71135;16.738;-14.648;2023-12-20T04:27:01;9.90;66.50
81726;DHT22;71135;16.738;-14.648;2023-12-20T04:29:30;9.90;66.50
81726;DHT22;71135;16.738;-14.648;2023-12-20T04:31:59;9.90;66.50
81726;DHT22;71135;16.738;-14.648;2023-12-20T04:34:31;9.90;66.50
81726;DHT22;71135;16.738;-14.648;2023-12-20T04:37:00;10.00;66.50
81726;DHT22;71135;16.738;-14.648;2023-12-20T04:39:30;10.00;66.50
81726;DHT22;71135;16.738;-14.648;2023-12-20T04:41:59;10.00;66.50
81726;DHT22;71135;16.738;-14.648;2023-12-20T04:44:28;10.00;66.50
81726;DHT22;71135;16.738;-14.648;2023-12-20T04:46:58;10.00;66.50
81726;DHT22;71135;16.738;-14.648;2023-12-20T04:49:27;10.00;66.50
81726;DHT22;71135;16.738;-14.648;2023-12-20T04:51:59;10.00;66.50
81726;DHT22;71135;16.738;-14.648;2023-12-20T04:54:30;10.00;66.40
81726;DHT22;71135;16.738;-14.648;2023-12-20T04:56:59;10.00;66.50
81726;DHT22;71135;16.738;-14.648;2023-12-20T04:59:28;10.00;66.40
81726;DHT22;71135;16.738;-14.648;2023-12-20T05:01:58;10.00;66.40
81726;DHT22;71135;16.738;-14.648;2023-12-20T05:04:27;10.00;66.40
81726;DHT22;71135;16.738;-14.648;2023-12-20T05:06:58;10.00;66.40
81726;DHT22;71135;16.738;-14.648;2023-12-20T05:09:27;10.00;66.30
81726;DHT22;71135;16.738;-14.648;2023-12-20T05:11:56;10.00;66.40
81726;DHT22;71135;16.738;-14.648;2023-12-20T05:14:26;10.10;66.30
81726;DHT22;71135;16.738;-14.648;2023-12-20T05:16:58;10.10;66.30
81726;DHT22;71135;16.738;-14.648;2023-12-20T05:19:28;10.10;66.30
81726;DHT22;71135;16.738;-14.648;2023-12-20T05:21:59;10.10;66.20
81726;DHT22;71135;16.738;-14.648;2023-12-20T05:24:29;10.10;66.20
81726;DHT22;71135;16.738;-14.648;2023-12-20T05:26:58;10.10;66.20
81726;DHT22;71135;16.738;-14.648;2023-12-20T05:29:27;10.10;66.20
81726;DHT22;71135;16.738;-14.648;2023-12-20T05:31:57;10.10;66.20
81726;DHT22;71135;16.738;-14.648;2023-12-20T05:34:26;10.20;66.20
81726;DHT22;71135;16.738;-14.648;2023-12-20T05:36:55;10.20;66.10
81726;DHT22;71135;16.738;-14.648;2023-12-20T05:39:27;10.10;66.10
81726;DHT22;71135;16.738;-14.648;2023-12-20T05:41:57;10.20;66.10
81726;DHT22;71135;16.738;-14.648;2023-12-20T05:44:26;10.20;66.10
81726;DHT22;71135;16.738;-14.648;2023-12-20T05:46:55;10.10;66.00
81726;DHT22;71135;16.738;-14.648;2023-12-20T05:49:24;10.20;66.00
81726;DHT22;71135;16.738;-14.648;2023-12-20T05:51:53;10.20;66.00
81726;DHT22;71135;16.738;-14.648;2023-12-20T05:54:22;10.20;66.00
81726;DHT22;71135;16.738;-14.648;2023-12-20T05:56:54;10.20;66.00
81726;DHT22;71135;16.738;-14.648;2023-12-20T05:59:23;10.20;66.00
81726;DHT22;71135;16.738;-14.648;2023-12-20T06:01:52;10.20;66.00
81726;DHT22;71135;16.738;-14.648;2023-12-20T06:04:21;10.20;65.90
81726;DHT22;71135;16.738;-14.648;2023-12-20T06:06:50;10.20;65.90
81726;DHT22;71135;16.738;-14.648;2023-12-20T06:09:19;10.20;65.90
81726;DHT22;71135;16.738;-14.648;2023-12-20T06:11:49;10.20;65.90
81726;DHT22;71135;16.738;-14.648;2023-12-20T06:14:21;10.20;65.90
81726;DHT22;71135;16.738;-14.648;2023-12-20T06:16:50;10.30;65.90
81726;DHT22;71135;16.738;-14.648;2023-12-20T06:19:19;10.30;65.90
81726;DHT22;71135;16.738;-14.648;2023-12-20T06:21:49;10.30;65.80
81726;DHT22;71135;16.738;-14.648;2023-12-20T06:24:18;10.30;65.80
81726;DHT22;71135;16.738;-14.648;2023-12-20T06:26:47;10.30;65.80
81726;DHT22;71135;16.738;-14.648;2023-12-20T06:29:16;10.30;65.80
81726;DHT22;71135;16.738;-14.648;2023-12-20T06:31:48;10.30;65.80
81726;DHT22;71135;16.738;-14.648;2023-12-20T06:34:17;10.30;65.80
81726;DHT22;71135;16.738;-14.648;2023-12-20T06:36:46;10.30;65.90
81726;DHT22;71135;16.738;-14.648;2023-12-20T06:39:15;10.40;65.80
81726;DHT22;71135;16.738;-14.648;2023-12-20T06:41:44;10.40;65.80
81726;DHT22;71135;16.738;-14.648;2023-12-20T06:44:13;10.40;65.80
81726;DHT22;71135;16.738;-14.648;2023-12-20T06:46:43;10.30;65.80
81726;DHT22;71135;16.738;-14.648;2023-12-20T06:49:15;10.30;65.80
81726;DHT22;71135;16.738;-14.648;2023-12-20T06:51:44;10.40;65.80
81726;DHT22;71135;16.738;-14.648;2023-12-20T06:54:13;10.40;65.90
81726;DHT22;71135;16.738;-14.648;2023-12-20T06:56:42;10.40;65.80
81726;DHT22;71135;16.738;-14.648;2023-12-20T06:59:12;10.40;65.80
81726;DHT22;71135;16.738;-14.648;2023-12-20T07:01:41;10.40;65.80
81726;DHT22;71135;16.738;-14.648;2023-12-20T07:04:10;10.40;65.80
81726;DHT22;71135;16.738;-14.648;2023-12-20T07:06:42;10.40;65.80
81726;DHT22;71135;16.738;-14.648;2023-12-20T07:09:11;10.40;65.80
81726;DHT22;71135;16.738;-14.648;2023-12-20T07:11:41;10.50;65.80
81726;DHT22;71135;16.738;-14.648;2023-12-20T07:14:10;10.50;65.80
81726;DHT22;71135;16.738;-14.648;2023-12-20T07:16:37;10.50;65.70
81726;DHT22;71135;16.738;-14.648;2023-12-20T07:19:06;10.50;65.70
81726;DHT22;71135;16.738;-14.648;2023-12-20T07:21:35;10.50;65.70
81726;DHT22;71135;16.738;-14.648;2023-12-20T07:24:07;10.50;65.70
81726;DHT22;71135;16.738;-14.648;2023-12-20T07:26:36;10.50;65.70
81726;DHT22;71135;16.738;-14.648;2023-12-20T07:29:06;10.50;65.70
81726;DHT22;71135;16.738;-14.648;2023-12-20T07:31:35;10.50;65.70
81726;DHT22;71135;16.738;-14.648;2023-12-20T07:34:04;10.50;65.60
81726;DHT22;71135;16.738;-14.648;2023-12-20T07:36:34;10.40;65.60
81726;DHT22;71135;16.738;-14.648;2023-12-20T07:39:03;10.40;65.70
81726;DHT22;71135;16.738;-14.648;2023-12-20T07:41:35;10.40;65.70
81726;DHT22;71135;16.738;-14.648;2023-12-20T07:44:04;10.40;65.70
81726;DHT22;71135;16.738;-14.648;2023-12-20T07:46:33;10.40;65.80
81726;DHT22;71135;16.738;-14.648;2023-12-20T07:49:03;10.40;65.80
81726;DHT22;71135;16.738;-14.648;2023-12-20T07:51:32;10.40;65.80
81726;DHT22;71135;16.738;-14.648;2023-12-20T07:54:01;10.50;65.80
81726;DHT22;71135;16.738;-14.648;2023-12-20T07:56:31;10.50;65.70
81726;DHT22;71135;16.738;-14.648;2023-12-20T07:59:02;10.50;65.70
81726;DHT22;71135;16.738;-14.648;2023-12-20T08:01:31;10.50;65.70
81726;DHT22;71135;16.738;-14.648;2023-12-20T08:04:00;10.50;65.70
81726;DHT22;71135;16.738;-14.648;2023-12-20T08:06:30;10.50;65.60
81726;DHT22;71135;16.738;-14.648;2023-12-20T08:08:59;10.50;65.60
81726;DHT22;71135;16.738;-14.648;2023-12-20T08:11:28;10.60;65.60
81726;DHT22;71135;16.738;-14.648;2023-12-20T08:14:13;10.60;65.70
81726;DHT22;71135;16.738;-14.648;2023-12-20T08:16:42;10.60;65.60
81726;DHT22;71135;16.738;-14.648;2023-12-20T08:19:11;10.60;65.60
81726;DHT22;71135;16.738;-14.648;2023-12-20T08:21:40;10.70;65.60
81726;DHT22;71135;16.738;-14.648;2023-12-20T08:24:09;10.70;65.60
81726;DHT22;71135;16.738;-14.648;2023-12-20T08:26:39;10.70;65.60
81726;DHT22;71135;16.738;-14.648;2023-12-20T08:29:08;10.70;65.60
81726;DHT22;71135;16.738;-14.648;2023-12-20T08:31:40;10.70;65.60
81726;DHT22;71135;16.738;-14.648;2023-12-20T08:34:09;10.70;65.50
81726;DHT22;71135;16.738;-14.648;2023-12-20T08:36:41;10.70;65.50
81726;DHT22;71135;16.738;-14.648;2023-12-20T08:39:10;10.70;65.40
81726;DHT22;71135;16.738;-14.648;2023-12-20T08:41:39;10.80;65.40
81726;DHT22;71135;16.738;-14.648;2023-12-20T08:44:08;10.80;65.40
81726;DHT22;71135;16.738;-14.648;2023-12-20T08:46:40;10.80;65.30
81726;DHT22;71135;16.738;-14.648;2023-12-20T08:49:09;10.80;65.30
81726;DHT22;71135;16.738;-14.648;2023-12-20T08:51:38;10.80;65.30
81726;DHT22;71135;16.738;-14.648;2023-12-20T08:54:08;10.80;65.30
81726;DHT22;71135;16.738;-14.648;2023-12-20T08:56:39;10.90;65.20
81726;DHT22;71135;16.738;-14.648;2023-12-20T08:59:08;10.90;65.20
81726;DHT22;71135;16.738;-14.648;2023-12-20T09:01:40;10.90;65.10
81726;DHT22;71135;16.738;-14.648;2023-12-20T09:04:10;10.90;65.10
81726;DHT22;71135;16.738;-14.648;2023-12-20T09:06:39;10.90;65.00
81726;DHT22;71135;16.738;-14.648;2023-12-20T09:09:08;10.90;65.10
81726;DHT22;71135;16.738;-14.648;2023-12-20T09:11:39;10.90;65.00
81726;DHT22;71135;16.738;-14.648;2023-12-20T09:14:09;11.00;65.00
81726;DHT22;71135;16.738;-14.648;2023-12-20T09:16:40;11.00;65.10
81726;DHT22;71135;16.738;-14.648;2023-12-20T09:19:10;11.00;65.00
81726;DHT22;71135;16.738;-14.648;2023-12-20T09:21:39;11.00;65.00
81726;DHT22;71135;16.738;-14.648;2023-12-20T09:24:06;11.00;65.00
81726;DHT22;71135;16.738;-14.648;2023-12-20T09:26:35;11.00;65.00
81726;DHT22;71135;16.738;-14.648;2023-12-20T09:29:06;11.00;65.00
81726;DHT22;71135;16.738;-14.648;2023-12-20T09:31:37;11.00;65.00
81726;DHT22;71135;16.738;-14.648;2023-12-20T09:34:08;11.00;65.00
81726;DHT22;71135;16.738;-14.648;2023-12-20T09:36:37;11.00;65.00
81726;DHT22;71135;16.738;-14.648;2023-12-20T09:39:13;11.00;65.00
81726;DHT22;71135;16.738;-14.648;2023-12-20T09:41:49;11.10;65.00
81726;DHT22;71135;16.738;-14.648;2023-12-20T09:44:21;11.10;65.00
81726;DHT22;71135;16.738;-14.648;2023-12-20T09:46:50;11.10;65.00
81726;DHT22;71135;16.738;-14.648;2023-12-20T09:49:22;11.10;64.90
81726;DHT22;71135;16.738;-14.648;2023-12-20T09:51:53;11.10;64.80
81726;DHT22;71135;16.738;-14.648;2023-12-20T09:54:23;11.20;64.80
81726;DHT22;71135;16.738;-14.648;2023-12-20T09:56:52;11.20;64.90
81726;DHT22;71135;16.738;-14.648;2023-12-20T09:59:21;11.30;65.00
81726;DHT22;71135;16.738;-14.648;2023-12-20T10:01:51;11.30;65.00
81726;DHT22;71135;16.738;-14.648;2023-12-20T10:04:25;11.40;65.00
81726;DHT22;71135;16.738;-14.648;2023-12-20T10:06:54;11.40;64.90
81726;DHT22;71135;16.738;-14.648;2023-12-20T10:09:24;11.50;64.90
81726;DHT22;71135;16.738;-14.648;2023-12-20T10:11:55;11.50;64.90
81726;DHT22;71135;16.738;-14.648;2023-12-20T10:14:24;11.50;64.90
81726;DHT22;71135;16.738;-14.648;2023-12-20T10:16:53;11.60;64.80
81726;DHT22;71135;16.738;-14.648;2023-12-20T10:19:33;11.70;64.70
81726;DHT22;71135;16.738;-14.648;2023-12-20T10:22:04;11.70;64.60
81726;DHT22;71135;16.738;-14.648;2023-12-20T10:24:33;11.70;64.50
81726;DHT22;71135;16.738;-14.648;2023-12-20T10:27:03;11.70;64.50
81726;DHT22;71135;16.738;-14.648;2023-12-20T10:29:33;11.70;64.50
81726;DHT22;71135;16.738;-14.648;2023-12-20T10:32:21;11.80;64.40
81726;DHT22;71135;16.738;-14.648;2023-12-20T10:34:54;11.80;64.10
81726;DHT22;71135;16.738;-14.648;2023-12-20T10:37:23;11.80;64.30
81726;DHT22;71135;16.738;-14.648;2023-12-20T10:39:54;11.80;64.20
81726;DHT22;71135;16.738;-14.648;2023-12-20T10:42:26;11.80;64.10
81726;DHT22;71135;16.738;-14.648;2023-12-20T10:44:55;11.70;64.00
81726;DHT22;71135;16.738;-14.648;2023-12-20T10:47:25;11.70;64.00
81726;DHT22;71135;16.738;-14.648;2023-12-20T10:49:59;11.70;64.00
81726;DHT22;71135;16.738;-14.648;2023-12-20T10:52:29;11.70;64.00
81726;DHT22;71135;16.738;-14.648;2023-12-20T10:55:01;11.80;64.00
81726;DHT22;71135;16.738;-14.648;2023-12-20T10:57:30;11.80;64.00
81726;DHT22;71135;16.738;-14.648;2023-12-20T11:00:01;11.90;64.00
81726;DHT22;71135;16.738;-14.648;2023-12-20T11:02:45;11.90;63.90
81726;DHT22;71135;16.738;-14.648;2023-12-20T11:05:25;11.90;63.70
81726;DHT22;71135;16.738;-14.648;2023-12-20T11:08:02;12.00;63.70
81726;DHT22;71135;16.738;-14.648;2023-12-20T11:10:37;12.00;63.70
81726;DHT22;71135;16.738;-14.648;2023-12-20T11:13:15;12.00;63.60
81726;DHT22;71135;16.738;-14.648;2023-12-20T11:15:46;12.00;63.60
81726;DHT22;71135;16.738;-14.648;2023-12-20T11:18:15;12.00;63.60
81726;DHT22;71135;16.738;-14.648;2023-12-20T11:20:49;12.10;63.60
81726;DHT22;71135;16.738;-14.648;2023-12-20T11:23:18;12.10;63.50
81726;DHT22;71135;16.738;-14.648;2023-12-20T11:25:48;12.10;63.60
81726;DHT22;71135;16.738;-14.648;2023-12-20T11:28:21;12.10;63.40
81726;DHT22;71135;16.738;-14.648;2023-12-20T11:30:51;12.20;63.30
81726;DHT22;71135;16.738;-14.648;2023-12-20T11:33:25;12.20;63.30
81726;DHT22;71135;16.738;-14.648;2023-12-20T11:35:59;12.20;63.20
81726;DHT22;71135;16.738;-14.648;2023-12-20T11:38:36;12.20;63.20
81726;DHT22;71135;16.738;-14.648;2023-12-20T11:41:06;12.20;63.20
81726;DHT22;71135;16.738;-14.648;2023-12-20T11:43:36;12.20;63.20
81726;DHT22;71135;16.738;-14.648;2023-12-20T11:46:06;12.20;63.20
81726;DHT22;71135;16.738;-14.648;2023-12-20T11:48:37;12.20;63.00
81726;DHT22;71135;16.738;-14.648;2023-12-20T11:51:12;12.20;63.00
81726;DHT22;71135;16.738;-14.648;2023-12-20T11:53:42;12.10;63.00
81726;DHT22;71135;16.738;-14.648;2023-12-20T11:56:11;12.10;63.10
81726;DHT22;71135;16.738;-14.648;2023-12-20T11:58:42;12.10;63.00
81726;DHT22;71135;16.738;-14.648;2023-12-20T12:01:11;12.00;63.10
81726;DHT22;71135;16.738;-14.648;2023-12-20T12:03:40;12.00;63.10
81726;DHT22;71135;16.738;-14.648;2023-12-20T12:06:12;12.00;63.10
81726;DHT22;71135;16.738;-14.648;2023-12-20T12:08:41;12.00;63.10
81726;DHT22;71135;16.738;-14.648;2023-12-20T12:11:11;11.90;63.20
81726;DHT22;71135;16.738;-14.648;2023-12-20T12:13:40;11.90;63.20
81726;DHT22;71135;16.738;-14.648;2023-12-20T12:16:10;11.90;63.20
81726;DHT22;71135;16.738;-14.648;2023-12-20T12:18:39;11.90;63.20
81726;DHT22;71135;16.738;-14.648;2023-12-20T12:21:12;11.90;63.20
81726;DHT22;71135;16.738;-14.648;2023-12-20T12:23:47;11.90;63.30
81726;DHT22;71135;16.738;-14.648;2023-12-20T12:26:16;11.90;63.30
81726;DHT22;71135;16.738;-14.648;2023-12-20T12:28:45;11.90;63.30
81726;DHT22;71135;16.738;-14.648;2023-12-20T12:31:14;11.90;63.30
81726;DHT22;71135;16.738;-14.648;2023-12-20T12:33:44;11.90;63.40
81726;DHT22;71135;16.738;-14.648;2023-12-20T12:36:17;11.90;63.40
81726;DHT22;71135;16.738;-14.648;2023-12-20T12:38:46;11.90;63.50
81726;DHT22;71135;16.738;-14.648;2023-12-20T12:41:15;11.90;63.60
81726;DHT22;71135;16.738;-14.648;2023-12-20T12:43:44;11.90;63.60
81726;DHT22;71135;16.738;-14.648;2023-12-20T12:46:13;11.90;63.60
81726;DHT22;71135;16.738;-14.648;2023-12-20T12:48:43;11.90;63.60
81726;DHT22;71135;16.738;-14.648;2023-12-20T12:51:12;11.80;63.60
81726;DHT22;71135;16.738;-14.648;2023-12-20T12:53:44;11.80;63.70
81726;DHT22;71135;16.738;-14.648;2023-12-20T12:56:14;11.80;63.80
81726;DHT22;71135;16.738;-14.648;2023-12-20T13:01:49;11.80;63.70
81726;DHT22;71135;16.738;-14.648;2023-12-20T13:04:18;11.80;63.70
81726;DHT22;71135;16.738;-14.648;2023-12-20T13:06:47;11.70;63.70
81726;DHT22;71135;16.738;-14.648;2023-12-20T13:09:18;11.70;63.70
81726;DHT22;71135;16.738;-14.648;2023-12-20T13:11:48;11.70;63.70
81726;DHT22;71135;16.738;-14.648;2023-12-20T13:14:17;11.70;63.70
81726;DHT22;71135;16.738;-14.648;2023-12-20T13:16:49;11.70;63.70
81726;DHT22;71135;16.738;-14.648;2023-12-20T13:19:18;11.70;63.70
81726;DHT22;71135;16.738;-14.648;2023-12-20T13:21:47;11.70;63.70
81726;DHT22;71135;16.738;-14.648;2023-12-20T13:24:19;11.70;63.70
81726;DHT22;71135;16.738;-14.648;2023-12-20T13:26:48;11.70;63.70
81726;DHT22;71135;16.738;-14.648;2023-12-20T13:29:17;11.70;63.70
81726;DHT22;71135;16.738;-14.648;2023-12-20T13:31:46;11.70;63.70
81726;DHT22;71135;16.738;-14.648;2023-12-20T13:34:16;11.70;63.70
81726;DHT22;71135;16.738;-14.648;2023-12-20T13:36:45;11.70;63.80
81726;DHT22;71135;16.738;-14.648;2023-12-20T13:39:19;11.70;63.70
81726;DHT22;71135;16.738;-14.648;2023-12-20T13:41:48;11.70;63.70
81726;DHT22;71135;16.738;-14.648;2023-12-20T13:44:17;11.70;63.70
81726;DHT22;71135;16.738;-14.648;2023-12-20T13:46:46;11.70;63.70
81726;DHT22;71135;16.738;-14.648;2023-12-20T13:49:16;11.70;63.80
81726;DHT22;71135;16.738;-14.648;2023-12-20T13:51:45;11.70;63.70
81726;DHT22;71135;16.738;-14.648;2023-12-20T13:54:14;11.70;63.70
81726;DHT22;71135;16.738;-14.648;2023-12-20T13:56:49;11.70;63.70
81726;DHT22;71135;16.738;-14.648;2023-12-20T13:59:18;11.70;63.70
81726;DHT22;71135;16.738;-14.648;2023-12-20T14:01:47;11.70;63.60
81726;DHT22;71135;16.738;-14.648;2023-12-20T14:04:16;11.70;63.70
81726;DHT22;71135;16.738;-14.648;2023-12-20T14:06:45;11.70;63.60
81726;DHT22;71135;16.738;-14.648;2023-12-20T14:09:14;11.70;63.60
81726;DHT22;71135;16.738;-14.648;2023-12-20T14:11:43;11.70;63.60
81726;DHT22;71135;16.738;-14.648;2023-12-20T14:14:16;11.70;63.60
81726;DHT22;71135;16.738;-14.648;2023-12-20T14:16:45;11.70;63.60
81726;DHT22;71135;16.738;-14.648;2023-12-20T14:19:18;11.70;63.60
81726;DHT22;71135;16.738;-14.648;2023-12-20T14:21:48;11.70;63.60
81726;DHT22;71135;16.738;-14.648;2023-12-20T14:24:17;11.70;63.60
81726;DHT22;71135;16.738;-14.648;2023-12-20T14:26:46;11.70;63.70
81726;DHT22;71135;16.738;-14.648;2023-12-20T14:29:18;11.60;63.80
81726;DHT22;71135;16.738;-14.648;2023-12-20T14:31:47;11.70;63.70
81726;DHT22;71135;16.738;-14.648;2023-12-20T14:34:16;11.70;63.80
81726;DHT22;71135;16.738;-14.648;2023-12-20T14:36:46;11.70;63.70
81726;DHT22;71135;16.738;-14.648;2023-12-20T14:39:15;11.70;63.70
81726;DHT22;71135;16.738;-14.648;2023-12-20T14:41:47;11.70;63.80
81726;DHT22;71135;16.738;-14.648;2023-12-20T14:44:18;11.70;63.80
81726;DHT22;71135;16.738;-14.648;2023-12-20T14:46:47;11.70;63.90
81726;DHT22;71135;16.738;-14.648;2023-12-20T14:49:16;11.70;63.90
81726;DHT22;71135;16.738;-14.648;2023-12-20T14:51:46;11.70;63.90
81726;DHT22;71135;16.738;-14.648;2023-12-20T14:54:15;11.70;63.90
81726;DHT22;71135;16.738;-14.648;2023-12-20T14:56:47;11.70;64.00
81726;DHT22;71135;16.738;-14.648;2023-12-20T14:59:18;11.70;64.00
81726;DHT22;71135;16.738;-14.648;2023-12-20T15:01:48;11.70;64.00
81726;DHT22;71135;16.738;-14.648;2023-12-20T15:04:17;11.60;64.10
81726;DHT22;71135;16.738;-14.648;2023-12-20T15:06:52;11.70;64.10
81726;DHT22;71135;16.738;-14.648;2023-12-20T15:09:21;11.70;64.20
81726;DHT22;71135;16.738;-14.648;2023-12-20T15:11:50;11.70;64.20
81726;DHT22;71135;16.738;-14.648;2023-12-20T15:14:22;11.60;64.20
81726;DHT22;71135;16.738;-14.648;2023-12-20T15:16:51;11.60;64.30
81726;DHT22;71135;16.738;-14.648;2023-12-20T15:19:21;11.60;64.30
81726;DHT22;71135;16.738;-14.648;2023-12-20T15:21:50;11.60;64.30
81726;DHT22;71135;16.738;-14.648;2023-12-20T15:24:19;11.60;64.30
81726;DHT22;71135;16.738;-14.648;2023-12-20T15:26:54;11.70;64.40
81726;DHT22;71135;16.738;-14.648;2023-12-20T15:29:26;11.60;64.40
81726;DHT22;71135;16.738;-14.648;2023-12-20T15:31:55;11.60;64.40
81726;DHT22;71135;16.738;-14.648;2023-12-20T15:34:24;11.60;64.50
81726;DHT22;71135;16.738;-14.648;2023-12-20T15:36:53;11.60;64.50
81726;DHT22;71135;16.738;-14.648;2023-12-20T15:39:22;11.50;64.50